Time;durP1;ratioP1;P1;durP2;ratioP2;P2;SDS_P1;SDS_P2;PMS_P1;PMS_P2;Temp;Humidity;BMP_temperature;BMP_pressure;BME280_temperature;BME280_humidity;BME280_pressure;Samples;Min_cycle;Max_cycle;Signal;HPM_P1;HPM_P2
2021/04/06 00:01:35;;;;;;;3.60;1.35;;;-0.40;99.90;;;;;;5069902;28;20478;-63
2021/04/06 00:04:05;;;;;;;3.83;1.33;;;-0.50;99.90;;;;;;5067824;28;20484;-63
2021/04/06 00:06:34;;;;;;;4.90;1.10;;;-0.50;99.90;;;;;;5070137;28;20463;-63
2021/04/06 00:09:00;;;;;;;3.90;1.10;;;-0.50;99.90;;;;;;5069070;28;20380;-61
2021/04/06 00:11:27;;;;;;;5.22;1.38;;;-0.60;99.90;;;;;;5049964;28;20792;-63
2021/04/06 00:13:55;;;;;;;6.00;2.20;;;2.00;99.90;;;;;;5068956;28;20379;-63
2021/04/06 00:16:23;;;;;;;4.38;1.40;;;-0.90;99.90;;;;;;5068752;28;20396;-63
2021/04/06 00:18:52;;;;;;;4.97;1.50;;;-1.00;99.90;;;;;;5067803;28;20474;-63
2021/04/06 00:21:18;;;;;;;5.38;1.50;;;0.40;99.90;;;;;;5070109;28;20436;-63
2021/04/06 00:23:47;;;;;;;4.70;1.30;;;-0.90;99.90;;;;;;5067252;28;20431;-62
2021/04/06 00:26:13;;;;;;;4.70;1.50;;;-1.00;99.90;;;;;;5069432;28;20388;-63
2021/04/06 00:28:42;;;;;;;4.10;1.45;;;-1.00;99.90;;;;;;5070071;28;20856;-59
2021/04/06 00:31:08;;;;;;;6.90;2.00;;;0.90;99.90;;;;;;5073290;28;20372;-62
2021/04/06 00:33:39;;;;;;;6.00;1.50;;;-1.10;99.90;;;;;;5072485;28;20487;-64
2021/04/06 00:36:05;;;;;;;6.03;1.93;;;-1.10;99.90;;;;;;5071639;28;20410;-64
2021/04/06 00:38:33;;;;;;;6.00;1.60;;;-1.10;99.90;;;;;;5073726;28;20384;-64
2021/04/06 00:41:03;;;;;;;6.30;1.90;;;-1.00;99.90;;;;;;5072848;28;20693;-63
2021/04/06 00:43:39;;;;;;;7.40;1.70;;;-1.00;99.90;;;;;;5071501;28;20399;-64
2021/04/06 00:46:09;;;;;;;9.18;2.40;;;0.50;99.90;;;;;;5071509;28;20398;-64
2021/04/06 00:48:41;;;;;;;5.78;2.10;;;-1.20;99.90;;;;;;5073007;28;20380;-64
2021/04/06 00:51:09;;;;;;;6.90;2.50;;;-1.20;99.90;;;;;;5072238;28;20792;-64
2021/04/06 00:53:56;;;;;;;6.50;2.27;;;-1.20;99.90;;;;;;5071592;28;20391;-65
2021/04/06 00:56:32;;;;;;;5.43;1.85;;;-1.20;99.90;;;;;;5073043;28;20533;-65
2021/04/06 00:59:07;;;;;;;7.35;2.30;;;-1.30;99.90;;;;;;5069903;28;21061;-65
2021/04/06 01:01:58;;;;;;;6.38;2.30;;;1.50;99.90;;;;;;5073265;28;20491;-65
2021/04/06 01:04:27;;;;;;;5.18;1.90;;;-1.30;99.90;;;;;;5071824;28;20472;-65
2021/04/06 01:06:57;;;;;;;8.25;2.35;;;-1.30;99.90;;;;;;5071972;28;20877;-65
2021/04/06 01:09:48;;;;;;;6.20;2.13;;;-1.20;99.90;;;;;;5072874;28;20384;-66
2021/04/06 01:12:24;;;;;;;5.85;1.73;;;-1.20;99.90;;;;;;5071186;28;20400;-66
2021/04/06 01:14:52;;;;;;;7.63;2.30;;;-1.20;99.90;;;;;;5072201;28;20412;-65
2021/04/06 01:17:20;;;;;;;7.90;2.30;;;-1.20;99.90;;;;;;5072959;28;20491;-65
2021/04/06 01:19:46;;;;;;;5.93;2.20;;;-1.20;99.90;;;;;;5070498;28;20400;-66
2021/04/06 01:22:17;;;;;;;6.00;2.08;;;-1.10;99.90;;;;;;5072508;28;20383;-62
2021/04/06 01:24:44;;;;;;;6.47;1.60;;;-1.10;99.90;;;;;;5072139;28;20372;-65
2021/04/06 01:27:18;;;;;;;5.53;1.90;;;-1.20;99.90;;;;;;5070842;28;20408;-66
2021/04/06 01:29:55;;;;;;;6.40;1.80;;;-1.20;99.90;;;;;;5072024;28;20395;-64
2021/04/06 01:32:23;;;;;;;7.55;1.92;;;-1.20;99.90;;;;;;5070811;28;20517;-66
2021/04/06 01:34:50;;;;;;;6.82;2.00;;;-1.20;99.90;;;;;;5071685;28;20517;-65
2021/04/06 01:37:23;;;;;;;5.43;1.90;;;-1.20;99.90;;;;;;5070855;28;20447;-65
2021/04/06 01:39:51;;;;;;;6.38;2.05;;;-1.20;99.90;;;;;;5070405;28;20407;-65
2021/04/06 01:42:18;;;;;;;4.70;1.80;;;-1.10;99.90;;;;;;5071675;28;20407;-68
2021/04/06 01:44:48;;;;;;;5.72;1.58;;;-1.10;99.90;;;;;;5051334;28;20444;-66
2021/04/06 01:47:16;;;;;;;4.70;1.90;;;-1.20;99.90;;;;;;5072330;28;21012;-66
2021/04/06 01:49:43;;;;;;;4.82;2.05;;;-1.20;99.90;;;;;;5069648;28;20400;-56
2021/04/06 01:52:09;;;;;;;7.50;2.00;;;-1.20;99.90;;;;;;5071756;28;20383;-66
2021/04/06 01:54:36;;;;;;;8.35;2.20;;;-1.30;99.90;;;;;;5072507;28;20483;-67
2021/04/06 01:57:15;;;;;;;7.50;2.00;;;-1.30;99.90;;;;;;5069726;28;20396;-65
2021/04/06 01:59:46;;;;;;;5.35;2.10;;;-1.30;99.90;;;;;;5071342;28;20419;-58
2021/04/06 02:02:12;;;;;;;7.35;1.70;;;-1.30;99.90;;;;;;5070467;28;20441;-66
2021/04/06 02:04:41;;;;;;;6.00;1.93;;;-1.30;99.90;;;;;;5070779;28;20380;-67
2021/04/06 02:07:09;;;;;;;5.55;1.85;;;-1.30;99.90;;;;;;5069843;28;20392;-66
2021/04/06 02:09:35;;;;;;;4.88;1.80;;;-1.40;99.90;;;;;;5071828;28;20399;-67
2021/04/06 02:12:01;;;;;;;6.75;2.22;;;-1.40;99.90;;;;;;5068861;28;20392;-66
2021/04/06 02:14:29;;;;;;;5.60;2.10;;;-1.40;99.90;;;;;;5071978;28;20429;-66
2021/04/06 02:17:06;;;;;;;6.45;2.20;;;-0.90;99.90;;;;;;5069242;28;20449;-66
2021/04/06 02:19:37;;;;;;;4.95;1.90;;;-1.40;99.90;;;;;;5071581;28;20406;-63
2021/04/06 02:22:11;;;;;;;6.95;2.20;;;-1.40;99.90;;;;;;5070791;28;20399;-62
2021/04/06 02:24:37;;;;;;;5.93;1.75;;;-1.30;99.90;;;;;;5071881;28;20442;-67
2021/04/06 02:27:23;;;;;;;4.95;1.90;;;-1.40;99.90;;;;;;5070709;28;20411;-67
2021/04/06 02:29:59;;;;;;;8.70;2.60;;;1.00;99.90;;;;;;5070710;28;20390;-66
2021/04/06 02:32:30;;;;;;;6.45;2.00;;;-1.50;99.90;;;;;;5071335;28;20478;-66
2021/04/06 02:35:07;;;;;;;6.88;2.00;;;-1.50;99.90;;;;;;5070543;28;20879;-66
2021/04/06 02:37:35;;;;;;;6.07;2.40;;;-1.50;99.90;;;;;;5071638;28;20425;-66
2021/04/06 02:40:08;;;;;;;6.88;1.90;;;-1.50;99.90;;;;;;5070807;28;21023;-66
2021/04/06 02:42:35;;;;;;;4.93;2.10;;;-0.50;99.90;;;;;;5071408;28;20387;-66
2021/04/06 02:45:10;;;;;;;6.10;2.08;;;-1.50;99.90;;;;;;5070736;28;20995;-67
2021/04/06 02:47:41;;;;;;;7.22;3.08;;;-1.50;99.90;;;;;;5071149;28;20865;-70
2021/04/06 02:50:13;;;;;;;6.65;2.10;;;-1.50;99.90;;;;;;5070741;28;20380;-66
2021/04/06 02:52:39;;;;;;;5.87;2.30;;;1.30;99.90;;;;;;5071253;28;20383;-67
2021/04/06 02:55:10;;;;;;;8.43;2.20;;;-1.50;99.90;;;;;;5070630;28;20462;-66
2021/04/06 02:57:45;;;;;;;6.85;2.30;;;-1.50;99.90;;;;;;5071325;28;20384;-64
2021/04/06 03:00:29;;;;;;;7.83;1.87;;;-1.40;99.90;;;;;;5049741;28;20512;-67
2021/04/06 03:03:02;;;;;;;7.40;2.20;;;0.10;99.90;;;;;;5050091;28;20396;-68
2021/04/06 03:05:37;;;;;;;5.63;2.50;;;-1.20;99.90;;;;;;5050563;28;20381;-67
2021/04/06 03:08:04;;;;;;;5.47;2.13;;;-1.10;99.90;;;;;;5050137;28;20385;-67
2021/04/06 03:10:34;;;;;;;6.45;1.90;;;-1.00;99.90;;;;;;5050935;28;20379;-61
2021/04/06 03:13:13;;;;;;;6.50;2.35;;;-1.10;99.90;;;;;;5050161;28;20623;-67
2021/04/06 03:15:41;;;;;;;6.45;1.73;;;1.00;99.90;;;;;;5050779;28;20850;-67
2021/04/06 03:18:08;;;;;;;5.10;2.35;;;-1.00;99.90;;;;;;5050088;28;20840;-66
2021/04/06 03:20:37;;;;;;;4.50;2.00;;;-1.10;99.90;;;;;;5050755;28;20409;-67
2021/04/06 03:23:06;;;;;;;9.48;2.40;;;-1.10;99.90;;;;;;5049757;28;20705;-67
2021/04/06 03:25:34;;;;;;;7.15;1.80;;;-1.10;99.90;;;;;;5050929;28;20381;-68
2021/04/06 03:28:13;;;;;;;5.50;2.10;;;-1.10;99.90;;;;;;5049834;28;20393;-67
2021/04/06 03:30:39;;;;;;;6.30;1.92;;;-1.10;99.90;;;;;;5050527;28;20385;-66
2021/04/06 03:33:06;;;;;;;4.47;1.40;;;-1.10;99.90;;;;;;5048863;28;20402;-67
2021/04/06 03:35:34;;;;;;;6.30;2.00;;;-1.00;99.90;;;;;;5049130;28;20389;-67
2021/04/06 03:38:01;;;;;;;4.93;1.75;;;-1.00;99.90;;;;;;5049573;28;20756;-67
2021/04/06 03:40:35;;;;;;;5.63;1.70;;;-1.00;99.90;;;;;;5050387;28;20406;-67
2021/04/06 03:43:16;;;;;;;5.78;1.70;;;-1.10;99.90;;;;;;5049508;28;20546;-68
2021/04/06 03:46:01;;;;;;;4.30;1.70;;;-1.20;99.90;;;;;;5049736;28;20392;-58
2021/04/06 03:48:29;;;;;;;5.88;1.83;;;-1.10;99.90;;;;;;5050043;28;20382;-67
2021/04/06 03:50:56;;;;;;;5.60;1.77;;;-1.10;99.90;;;;;;5049613;28;20377;-66
2021/04/06 03:53:25;;;;;;;8.10;2.17;;;-1.20;99.90;;;;;;5050392;28;20803;-64
2021/04/06 03:56:05;;;;;;;5.40;1.42;;;-1.30;99.90;;;;;;5049034;28;20939;-67
2021/04/06 03:58:56;;;;;;;6.38;1.73;;;-1.40;99.90;;;;;;5054190;28;20409;-67
2021/04/06 04:01:18;;;;;;;5.30;1.70;;;-1.40;99.90;;;;;;5068419;28;20402;-68
2021/04/06 04:03:43;;;;;;;7.70;1.43;;;-1.40;99.90;;;;;;5069073;28;20424;-58
2021/04/06 04:06:09;;;;;;;7.00;2.45;;;-1.40;99.90;;;;;;5069640;28;20395;-67
2021/04/06 04:08:35;;;;;;;7.27;1.93;;;-1.20;99.90;;;;;;5052094;28;20463;-71
2021/04/06 04:11:01;;;;;;;6.97;1.80;;;-1.20;99.90;;;;;;5068783;28;21131;-63
2021/04/06 04:13:26;;;;;;;10.60;2.15;;;-1.10;99.90;;;;;;5069840;28;20376;-70
2021/04/06 04:15:52;;;;;;;8.00;1.80;;;-1.10;99.90;;;;;;5069074;28;20372;-68
2021/04/06 04:18:18;;;;;;;6.83;2.00;;;-1.10;99.90;;;;;;5068748;28;20415;-68
2021/04/06 04:20:44;;;;;;;7.17;1.87;;;-1.10;99.90;;;;;;5067644;28;20930;-68
2021/04/06 04:23:09;;;;;;;5.38;1.75;;;-1.10;99.90;;;;;;5069866;28;20368;-66
2021/04/06 04:25:35;;;;;;;5.70;1.88;;;-1.10;99.90;;;;;;5067343;28;20391;-68
2021/04/06 04:28:01;;;;;;;6.63;1.65;;;-0.90;99.90;;;;;;5068575;28;20395;-67
2021/04/06 04:30:47;;;;;;;7.13;2.00;;;-1.00;99.90;;;;;;5069313;28;20396;-67
2021/04/06 04:33:13;;;;;;;6.53;2.08;;;-0.90;99.90;;;;;;5067495;28;20403;-67
2021/04/06 04:35:39;;;;;;;5.63;1.70;;;-0.80;99.90;;;;;;5069235;28;20387;-68
2021/04/06 04:38:06;;;;;;;6.60;1.90;;;-0.80;99.90;;;;;;5067062;28;20380;-68
2021/04/06 04:40:32;;;;;;;6.53;1.88;;;-0.90;99.90;;;;;;5067397;28;20430;-67
2021/04/06 04:42:58;;;;;;;7.53;1.80;;;-0.70;99.90;;;;;;5066814;28;20456;-68
2021/04/06 04:45:25;;;;;;;5.80;2.20;;;-0.70;99.90;;;;;;5069272;28;20387;-68
2021/04/06 04:47:51;;;;;;;6.97;2.25;;;0.40;99.90;;;;;;5068464;28;20376;-66
2021/04/06 04:50:19;;;;;;;5.75;2.13;;;-0.70;99.90;;;;;;5067221;28;20399;-67
2021/04/06 04:52:48;;;;;;;6.63;2.45;;;-0.60;99.90;;;;;;5047811;28;20378;-57
2021/04/06 04:55:19;;;;;;;6.70;2.20;;;-0.60;99.90;;;;;;5067419;28;20408;-68
2021/04/06 04:57:44;;;;;;;9.90;2.38;;;-0.70;99.90;;;;;;5067141;28;21322;-57
2021/04/06 05:00:12;;;;;;;8.60;2.50;;;-0.60;99.90;;;;;;5068449;28;20897;-69
2021/04/06 05:02:38;;;;;;;6.72;2.10;;;-0.60;99.90;;;;;;5067528;28;20407;-67
2021/04/06 05:05:05;;;;;;;8.35;2.50;;;1.90;99.90;;;;;;5067188;28;20375;-66
2021/04/06 05:07:31;;;;;;;10.30;2.30;;;-0.70;99.90;;;;;;5068221;28;20395;-67
2021/04/06 05:09:57;;;;;;;11.13;2.60;;;-0.70;99.90;;;;;;5067487;28;20756;-67
2021/04/06 05:12:23;;;;;;;5.78;2.20;;;-0.60;99.90;;;;;;5068434;28;20453;-67
2021/04/06 05:14:49;;;;;;;6.93;2.38;;;-0.50;99.90;;;;;;5070588;28;20392;-67
2021/04/06 05:17:15;;;;;;;8.40;2.63;;;-0.50;99.90;;;;;;5072777;28;20794;-67
2021/04/06 05:19:41;;;;;;;9.38;2.55;;;-0.50;99.90;;;;;;5070454;28;20451;-69
2021/04/06 05:22:07;;;;;;;8.38;2.50;;;-0.40;99.90;;;;;;5071745;28;20850;-66
2021/04/06 05:24:33;;;;;;;9.77;2.20;;;-0.40;99.90;;;;;;5072746;28;20579;-66
2021/04/06 05:26:59;;;;;;;7.45;2.05;;;-0.30;99.90;;;;;;5069696;28;20486;-66
2021/04/06 05:29:25;;;;;;;10.40;2.43;;;-0.40;99.90;;;;;;5072737;28;20483;-67
2021/04/06 05:31:50;;;;;;;8.93;2.70;;;-0.40;99.90;;;;;;5069674;28;20396;-66
2021/04/06 05:34:16;;;;;;;6.97;2.60;;;-0.30;99.90;;;;;;5072542;28;20801;-66
2021/04/06 05:36:42;;;;;;;8.90;2.80;;;-0.20;99.90;;;;;;5072825;28;20387;-67
2021/04/06 05:39:08;;;;;;;8.23;2.65;;;-0.10;99.90;;;;;;5070005;28;20408;-67
2021/04/06 05:41:35;;;;;;;9.68;2.42;;;-0.10;99.90;;;;;;5071665;28;20746;-66
2021/04/06 05:44:04;;;;;;;9.25;3.03;;;-0.10;99.90;;;;;;5071828;28;20372;-68
2021/04/06 05:46:34;;;;;;;9.32;2.70;;;-0.10;99.90;;;;;;5070432;28;20395;-67
2021/04/06 05:49:03;;;;;;;7.20;3.03;;;-0.10;99.90;;;;;;5070994;28;20383;-66
2021/04/06 05:51:29;;;;;;;9.45;3.08;;;1.50;99.90;;;;;;5070509;28;20411;-65
2021/04/06 05:53:55;;;;;;;6.78;2.55;;;-0.10;99.90;;;;;;5063670;28;20859;-64
2021/04/06 05:56:21;;;;;;;7.30;2.90;;;-0.10;99.90;;;;;;5068264;28;20506;-65
2021/04/06 05:58:47;;;;;;;7.55;2.78;;;0.10;99.90;;;;;;5067452;28;20937;-57
2021/04/06 06:01:13;;;;;;;8.60;3.08;;;0.20;99.90;;;;;;5069219;28;20510;-64
2021/04/06 06:03:39;;;;;;;9.63;2.85;;;0.20;99.90;;;;;;5069953;28;20534;-66
2021/04/06 06:06:05;;;;;;;8.88;2.88;;;0.30;99.90;;;;;;5070724;28;20380;-60
2021/04/06 06:08:31;;;;;;;8.63;3.20;;;0.40;99.90;;;;;;5071805;28;20419;-66
2021/04/06 06:11:04;;;;;;;13.00;3.30;;;3.00;99.90;;;;;;5069336;28;20399;-65
2021/04/06 06:13:30;;;;;;;7.93;2.80;;;1.40;99.90;;;;;;5071737;28;20460;-65
2021/04/06 06:16:18;;;;;;;6.28;2.67;;;0.40;99.90;;;;;;5069447;28;20387;-65
2021/04/06 06:18:57;;;;;;;11.18;2.80;;;0.30;99.90;;;;;;5070668;28;20462;-57
2021/04/06 06:21:24;;;;;;;7.15;2.75;;;0.30;99.90;;;;;;5071528;28;20549;-65
2021/04/06 06:23:50;;;;;;;7.13;2.60;;;0.40;99.90;;;;;;5068912;28;20400;-64
2021/04/06 06:26:17;;;;;;;8.25;3.10;;;0.30;99.90;;;;;;5070503;28;20453;-65
2021/04/06 06:29:05;;;;;;;13.27;2.88;;;1.30;99.90;;;;;;5070918;28;20871;-64
2021/04/06 06:31:50;;;;;;;8.50;3.20;;;0.30;99.90;;;;;;5069942;28;20404;-66
2021/04/06 06:34:37;;;;;;;12.27;3.30;;;0.40;99.90;;;;;;5069418;28;20400;-65
2021/04/06 06:37:27;;;;;;;9.05;2.95;;;0.70;99.90;;;;;;5070331;28;20475;-64
2021/04/06 06:40:00;;;;;;;7.43;3.20;;;0.70;99.90;;;;;;5050507;28;20811;-65
2021/04/06 06:42:37;;;;;;;7.07;2.70;;;0.60;99.90;;;;;;5071055;28;20376;-65
2021/04/06 06:45:20;;;;;;;7.97;2.90;;;0.70;99.90;;;;;;5068370;28;20387;-66
2021/04/06 06:47:54;;;;;;;9.55;3.15;;;0.90;99.90;;;;;;5070836;28;20387;-56
2021/04/06 06:50:21;;;;;;;8.93;2.80;;;1.00;99.90;;;;;;5070989;28;20394;-64
2021/04/06 06:52:53;;;;;;;6.60;2.90;;;1.00;99.90;;;;;;5068846;28;20399;-56
2021/04/06 06:55:24;;;;;;;10.50;3.60;;;2.50;99.90;;;;;;5070203;28;20403;-64
2021/04/06 06:58:04;;;;;;;14.20;3.57;;;0.80;99.90;;;;;;5049414;28;20783;-64
2021/04/06 07:00:29;;;;;;;10.98;3.80;;;1.90;99.90;;;;;;5050850;28;20425;-65
2021/04/06 07:02:55;;;;;;;8.63;2.90;;;3.50;99.90;;;;;;5053352;28;20445;-62
2021/04/06 07:05:23;;;;;;;11.77;3.40;;;1.50;99.90;;;;;;5070095;28;20738;-65
2021/04/06 07:07:55;;;;;;;6.55;3.03;;;1.00;99.90;;;;;;5068102;28;20391;-63
2021/04/06 07:10:27;;;;;;;12.90;3.80;;;1.30;99.90;;;;;;5069763;28;20384;-64
2021/04/06 07:13:02;;;;;;;11.38;3.50;;;1.60;99.90;;;;;;5068868;28;20388;-65
2021/04/06 07:15:29;;;;;;;10.77;3.17;;;1.80;99.90;;;;;;5070724;28;20386;-64
2021/04/06 07:18:09;;;;;;;10.40;2.90;;;3.50;99.90;;;;;;5069061;28;20434;-67
2021/04/06 07:20:39;;;;;;;9.95;3.40;;;1.90;99.90;;;;;;5069403;28;20919;-65
2021/04/06 07:23:09;;;;;;;10.25;3.40;;;3.40;99.90;;;;;;5069932;28;20541;-65
2021/04/06 07:25:35;;;;;;;8.55;3.45;;;1.80;99.90;;;;;;5069458;28;20921;-63
2021/04/06 07:28:03;;;;;;;8.50;3.15;;;1.90;99.90;;;;;;5068087;28;20396;-65
2021/04/06 07:30:30;;;;;;;12.20;3.67;;;1.90;99.90;;;;;;5068622;28;20465;-61
2021/04/06 07:32:57;;;;;;;10.65;2.85;;;1.90;99.90;;;;;;5069352;28;20382;-60
2021/04/06 07:35:24;;;;;;;8.18;2.97;;;1.90;99.90;;;;;;5068867;28;20403;-63
2021/04/06 07:37:50;;;;;;;6.80;3.10;;;1.90;99.90;;;;;;5066920;28;20455;-60
2021/04/06 07:40:19;;;;;;;9.52;2.78;;;2.10;99.90;;;;;;5068759;28;20424;-58
2021/04/06 07:42:46;;;;;;;9.40;3.33;;;2.30;99.90;;;;;;5068319;28;20399;-65
2021/04/06 07:45:24;;;;;;;8.25;2.92;;;4.80;99.90;;;;;;5069269;28;20380;-62
2021/04/06 07:47:51;;;;;;;9.93;3.05;;;2.30;99.90;;;;;;5067347;28;20444;-59
2021/04/06 07:50:42;;;;;;;10.18;3.00;;;3.70;99.90;;;;;;5050303;28;20410;-64
2021/04/06 07:53:21;;;;;;;7.13;2.60;;;2.00;99.90;;;;;;5053304;28;20391;-67
2021/04/06 07:55:47;;;;;;;9.13;2.30;;;3.60;99.90;;;;;;5067897;28;20483;-57
2021/04/06 07:58:52;;;;;;;8.52;2.70;;;2.60;99.90;;;;;;5069364;28;20463;-63
2021/04/06 08:01:29;;;;;;;8.20;3.33;;;1.80;99.90;;;;;;5050914;28;20955;-62
2021/04/06 08:03:59;;;;;;;6.78;2.38;;;4.50;99.90;;;;;;5068003;28;20502;-63
2021/04/06 08:06:39;;;;;;;7.03;2.35;;;1.80;99.90;;;;;;5069573;28;20383;-63
2021/04/06 08:12:10;;;;;;;10.05;2.95;;;1.80;99.90;;;;;;5066886;28;20776;-63
2021/04/06 08:14:43;;;;;;;9.80;3.30;;;2.00;99.90;;;;;;5069655;28;20387;-62
2021/04/06 08:17:26;;;;;;;9.48;3.20;;;2.10;99.90;;;;;;5067454;28;20391;-61
2021/04/06 08:20:14;;;;;;;7.25;2.80;;;2.20;99.90;;;;;;5068675;28;20407;-63
2021/04/06 08:22:43;;;;;;;8.80;3.00;;;2.10;99.90;;;;;;5067685;28;20400;-64
2021/04/06 08:25:18;;;;;;;11.40;2.77;;;2.00;99.90;;;;;;5068453;28;20387;-63
2021/04/06 08:27:54;;;;;;;8.80;2.80;;;2.10;99.90;;;;;;5068796;28;20439;-61
2021/04/06 08:30:22;;;;;;;9.15;2.60;;;2.00;99.90;;;;;;5068796;28;20402;-62
2021/04/06 08:33:00;;;;;;;8.18;2.70;;;2.50;99.90;;;;;;5068537;28;20391;-55
2021/04/06 08:35:44;;;;;;;5.97;3.20;;;2.20;99.90;;;;;;5068262;28;20490;-62
2021/04/06 08:38:22;;;;;;;10.45;2.90;;;4.00;99.90;;;;;;5066939;28;20395;-62
2021/04/06 08:41:10;;;;;;;9.05;2.90;;;2.10;99.90;;;;;;5068573;28;20411;-56
2021/04/06 08:43:50;;;;;;;8.17;2.63;;;1.80;99.90;;;;;;5066207;28;20469;-61
2021/04/06 08:46:33;;;;;;;7.10;2.60;;;2.00;99.90;;;;;;5068472;28;20392;-61
2021/04/06 08:48:58;;;;;;;9.10;3.00;;;2.10;99.90;;;;;;5068578;28;20400;-62
2021/04/06 08:51:28;;;;;;;10.07;2.95;;;2.50;99.90;;;;;;5072955;28;20387;-59
2021/04/06 08:54:03;;;;;;;9.40;3.30;;;5.00;99.90;;;;;;5070687;28;20396;-59
2021/04/06 08:56:34;;;;;;;7.10;2.60;;;4.80;99.90;;;;;;5072322;28;20383;-60
2021/04/06 08:59:34;;;;;;;8.20;2.80;;;3.20;99.90;;;;;;5071515;28;20411;-60
2021/04/06 09:02:14;;;;;;;8.40;2.40;;;3.20;99.90;;;;;;5070529;28;20407;-59
2021/04/06 09:04:48;;;;;;;7.90;2.63;;;3.40;99.90;;;;;;5037356;28;20880;-60
2021/04/06 09:07:19;;;;;;;8.30;2.97;;;3.50;99.90;;;;;;5070907;28;20400;-59
2021/04/06 09:09:46;;;;;;;8.90;3.03;;;3.30;99.90;;;;;;5072877;28;20387;-60
2021/04/06 09:12:12;;;;;;;10.70;2.60;;;3.50;99.90;;;;;;5070148;28;20397;-59
2021/04/06 09:14:39;;;;;;;7.05;2.70;;;3.70;99.90;;;;;;5072045;28;20376;-60
2021/04/06 09:17:04;;;;;;;9.03;2.80;;;3.60;99.90;;;;;;5070901;28;20437;-59
2021/04/06 09:19:34;;;;;;;5.70;2.20;;;3.90;99.90;;;;;;5072026;28;20403;-59
2021/04/06 09:22:03;;;;;;;9.15;2.55;;;4.20;99.90;;;;;;5070073;28;20549;-59
2021/04/06 09:24:30;;;;;;;6.70;2.53;;;4.50;99.90;;;;;;5071848;28;20396;-59
2021/04/06 09:26:58;;;;;;;6.90;2.30;;;5.10;99.90;;;;;;5070744;28;20470;-60
2021/04/06 09:29:30;;;;;;;6.13;2.45;;;5.50;99.90;;;;;;5072800;28;20431;-59
2021/04/06 09:31:59;;;;;;;7.03;2.20;;;4.70;99.90;;;;;;5069440;28;20452;-60
2021/04/06 09:34:28;;;;;;;9.20;2.90;;;4.30;99.90;;;;;;5072239;28;20368;-60
2021/04/06 09:37:05;;;;;;;9.20;2.40;;;3.90;99.90;;;;;;5071691;28;20421;-60
2021/04/06 09:39:32;;;;;;;7.78;2.58;;;3.70;99.90;;;;;;5070120;28;20757;-60
2021/04/06 09:42:00;;;;;;;8.25;2.70;;;3.20;99.90;;;;;;5071740;28;20908;-64
2021/04/06 09:44:28;;;;;;;9.02;2.88;;;3.40;99.90;;;;;;5070710;28;20483;-61
2021/04/06 09:46:58;;;;;;;9.98;2.40;;;3.70;99.90;;;;;;5071434;28;20395;-61
2021/04/06 09:49:33;;;;;;;9.00;3.22;;;3.80;99.90;;;;;;5052229;28;20475;-61
2021/04/06 09:52:02;;;;;;;7.30;2.63;;;3.60;99.90;;;;;;5071261;28;20384;-59
2021/04/06 09:54:36;;;;;;;8.30;2.60;;;3.80;99.90;;;;;;5054612;28;20395;-59
2021/04/06 09:57:11;;;;;;;8.07;2.50;;;4.40;99.90;;;;;;5069447;28;20403;-58
2021/04/06 09:59:39;;;;;;;7.53;2.67;;;3.90;99.90;;;;;;5071060;28;20460;-59
2021/04/06 10:02:06;;;;;;;9.20;2.28;;;3.40;99.90;;;;;;5068803;28;20884;-60
2021/04/06 10:04:41;;;;;;;9.65;2.97;;;3.10;99.90;;;;;;5069987;28;20418;-59
2021/04/06 10:07:13;;;;;;;9.23;2.40;;;5.10;99.90;;;;;;5071001;28;20380;-60
2021/04/06 10:09:48;;;;;;;8.05;2.97;;;3.90;99.90;;;;;;5071694;28;21124;-60
2021/04/06 10:12:15;;;;;;;5.90;2.30;;;4.00;99.90;;;;;;5050643;28;20439;-61
2021/04/06 10:14:42;;;;;;;11.40;2.55;;;4.40;99.90;;;;;;5071949;28;20900;-58
2021/04/06 10:17:16;;;;;;;8.68;2.65;;;4.60;99.90;;;;;;5068728;28;20491;-59
2021/04/06 10:19:54;;;;;;;9.70;2.63;;;4.70;99.90;;;;;;5071242;28;20610;-60
2021/04/06 10:22:22;;;;;;;8.23;3.17;;;4.60;99.90;;;;;;5071249;28;20367;-58
2021/04/06 10:24:56;;;;;;;6.03;2.05;;;5.00;99.90;;;;;;5067124;28;20900;-58
2021/04/06 10:27:27;;;;;;;10.52;2.50;;;4.80;99.90;;;;;;5069910;28;20396;-59
2021/04/06 10:29:59;;;;;;;8.73;2.35;;;4.40;99.90;;;;;;5070526;28;20877;-53
2021/04/06 10:32:34;;;;;;;10.60;2.90;;;4.30;99.90;;;;;;5070849;28;20473;-59
2021/04/06 10:35:09;;;;;;;10.02;2.80;;;4.00;99.90;;;;;;5069508;28;20396;-58
2021/04/06 10:37:39;;;;;;;8.88;2.58;;;3.70;99.90;;;;;;5069659;28;20411;-60
2021/04/06 10:40:30;;;;;;;7.15;2.40;;;3.90;99.90;;;;;;5070272;28;20473;-60
2021/04/06 10:43:11;;;;;;;8.50;2.45;;;4.40;99.90;;;;;;5070593;28;20387;-57
2021/04/06 10:45:43;;;;;;;11.50;3.08;;;4.80;99.90;;;;;;5068021;28;20402;-59
2021/04/06 10:48:15;;;;;;;10.38;2.97;;;4.60;99.90;;;;;;5068475;28;20399;-58
2021/04/06 10:50:49;;;;;;;7.78;2.10;;;5.10;99.90;;;;;;5070823;28;20380;-59
2021/04/06 10:53:19;;;;;;;5.85;1.55;;;5.80;99.90;;;;;;5068570;28;21364;-59
2021/04/06 10:55:47;;;;;;;5.20;1.50;;;5.60;99.90;;;;;;5070746;28;20415;-57
2021/04/06 10:58:21;;;;;;;4.80;1.40;;;7.50;99.90;;;;;;5068324;28;21099;-57
2021/04/06 11:00:55;;;;;;;7.18;1.90;;;5.10;99.90;;;;;;5069754;28;20456;-60
2021/04/06 11:03:21;;;;;;;7.00;1.40;;;5.50;99.90;;;;;;5069114;28;20451;-59
2021/04/06 11:05:47;;;;;;;6.90;2.20;;;5.80;99.90;;;;;;5070668;28;20395;-60
2021/04/06 11:08:21;;;;;;;5.60;1.60;;;4.40;99.90;;;;;;5068241;28;20392;-60
2021/04/06 11:10:48;;;;;;;6.53;1.50;;;7.40;99.90;;;;;;5070266;28;20383;-59
2021/04/06 11:13:14;;;;;;;6.97;2.73;;;5.50;99.90;;;;;;5049762;28;20399;-61
2021/04/06 11:15:41;;;;;;;9.20;2.17;;;6.10;99.90;;;;;;5070604;28;20387;-60
2021/04/06 11:18:08;;;;;;;10.25;2.33;;;6.40;99.90;;;;;;5069350;28;20400;-60
2021/04/06 11:20:33;;;;;;;6.75;1.83;;;6.30;99.90;;;;;;5070133;28;20880;-60
2021/04/06 11:22:59;;;;;;;8.82;2.53;;;6.20;99.90;;;;;;5068242;28;20418;-60
2021/04/06 11:25:25;;;;;;;5.93;2.10;;;6.00;99.90;;;;;;5070024;28;20372;-58
2021/04/06 11:27:52;;;;;;;7.95;2.20;;;5.80;99.90;;;;;;5070512;28;20394;-61
2021/04/06 11:30:18;;;;;;;6.82;2.20;;;6.00;99.90;;;;;;5069640;28;20436;-61
2021/04/06 11:32:44;;;;;;;7.35;2.05;;;6.20;99.90;;;;;;5069805;28;20940;-60
2021/04/06 11:35:10;;;;;;;6.00;1.38;;;6.60;99.90;;;;;;5069105;28;20383;-61
2021/04/06 11:37:36;;;;;;;5.93;1.70;;;6.10;99.90;;;;;;5069816;28;20868;-60
2021/04/06 11:40:02;;;;;;;6.93;1.50;;;6.20;99.90;;;;;;5069112;28;20419;-59
2021/04/06 11:42:28;;;;;;;5.80;2.27;;;6.10;99.90;;;;;;5070153;28;20404;-61
2021/04/06 11:44:54;;;;;;;5.40;1.80;;;6.70;99.90;;;;;;5068478;28;20392;-54
2021/04/06 11:47:19;;;;;;;8.23;1.97;;;7.20;99.90;;;;;;5069449;28;20371;-61
2021/04/06 11:49:45;;;;;;;6.30;2.10;;;6.40;98.20;;;;;;5070174;28;20820;-60
2021/04/06 11:52:11;;;;;;;7.90;2.13;;;6.20;98.30;;;;;;5068725;28;20394;-61
2021/04/06 11:54:37;;;;;;;6.90;2.20;;;6.10;98.40;;;;;;5069840;28;20375;-61
2021/04/06 11:57:03;;;;;;;6.40;2.22;;;6.20;98.90;;;;;;5069217;28;20392;-60
2021/04/06 11:59:30;;;;;;;7.30;1.93;;;6.10;98.30;;;;;;5069132;28;20408;-62
2021/04/06 12:01:56;;;;;;;5.95;1.80;;;6.20;99.70;;;;;;5051087;28;20841;-55
2021/04/06 12:04:21;;;;;;;7.40;2.40;;;6.30;97.90;;;;;;5069607;28;20888;-61
2021/04/06 12:06:47;;;;;;;7.95;2.25;;;6.60;99.20;;;;;;5069975;28;20387;-60
2021/04/06 12:09:13;;;;;;;7.27;1.90;;;6.70;97.90;;;;;;5050508;28;20380;-59
2021/04/06 12:11:40;;;;;;;6.25;1.88;;;6.80;98.20;;;;;;5051209;28;20423;-60
2021/04/06 12:14:06;;;;;;;4.80;1.88;;;6.50;96.70;;;;;;5068647;28;20462;-59
2021/04/06 12:16:32;;;;;;;8.70;2.35;;;6.70;97.90;;;;;;5069583;28;20375;-59
2021/04/06 12:18:58;;;;;;;5.63;1.80;;;6.40;95.10;;;;;;5051051;28;20383;-59
2021/04/06 12:21:24;;;;;;;7.80;2.47;;;6.80;96.30;;;;;;5069491;28;20437;-59
2021/04/06 12:23:50;;;;;;;5.80;2.15;;;7.10;96.00;;;;;;5069045;28;20416;-62
2021/04/06 12:26:16;;;;;;;5.10;1.40;;;7.00;94.30;;;;;;5068674;28;20897;-60
2021/04/06 12:28:41;;;;;;;7.90;1.50;;;6.70;94.10;;;;;;5050749;28;20730;-59
2021/04/06 12:31:07;;;;;;;4.80;1.80;;;6.50;95.70;;;;;;5068421;28;20391;-60
2021/04/06 12:33:33;;;;;;;5.57;2.07;;;7.00;96.50;;;;;;5069382;28;20438;-60
2021/04/06 12:36:03;;;;;;;6.55;2.05;;;7.00;94.40;;;;;;5068622;28;20424;-60
2021/04/06 12:38:28;;;;;;;8.63;1.88;;;7.00;93.20;;;;;;5068854;28;20379;-60
2021/04/06 12:40:55;;;;;;;5.80;1.90;;;6.90;93.50;;;;;;5069058;28;20441;-54
2021/04/06 12:43:21;;;;;;;9.45;2.03;;;7.00;93.60;;;;;;5069560;28;20379;-57
2021/04/06 12:45:47;;;;;;;9.80;2.20;;;6.50;93.00;;;;;;5069999;28;20379;-60
2021/04/06 12:48:12;;;;;;;5.93;1.90;;;6.40;94.80;;;;;;5050352;28;20470;-60
2021/04/06 12:50:38;;;;;;;6.20;1.70;;;6.20;94.70;;;;;;5068884;28;20391;-60
2021/04/06 12:53:03;;;;;;;6.55;2.28;;;6.20;94.10;;;;;;5068721;28;20380;-60
2021/04/06 12:55:29;;;;;;;6.60;1.83;;;5.90;94.40;;;;;;5069745;28;20434;-59
2021/04/06 12:57:55;;;;;;;8.55;2.38;;;5.80;95.90;;;;;;5068496;28;20398;-54
2021/04/06 13:00:22;;;;;;;7.07;2.60;;;6.00;94.70;;;;;;5068522;28;20412;-60
2021/04/06 13:02:50;;;;;;;9.15;3.35;;;6.00;95.00;;;;;;5069130;28;20376;-58
2021/04/06 13:05:16;;;;;;;7.60;2.08;;;6.00;93.20;;;;;;5050151;28;21267;-61
2021/04/06 13:07:43;;;;;;;9.40;2.75;;;6.00;94.50;;;;;;5069302;28;20406;-60
2021/04/06 13:10:16;;;;;;;7.65;2.55;;;6.30;94.90;;;;;;5050486;28;20398;-60
2021/04/06 13:12:42;;;;;;;7.10;2.60;;;6.10;93.40;;;;;;5062327;28;20387;-58